Time;durP1;ratioP1;P1;durP2;ratioP2;P2;SDS_P1;SDS_P2;PMS_P1;PMS_P2;Temp;Humidity;BMP_temperature;BMP_pressure;BME280_temperature;BME280_humidity;BME280_pressure;Samples;Min_cycle;Max_cycle;Signal;HPM_P1;HPM_P2
2023/11/13 00:01:25;;;;;;;19.13;11.55;;;;;;;2.83;100.00;100824.16;4907759;29;20051;-77
2023/11/13 00:03:51;;;;;;;19.98;11.15;;;;;;;2.81;100.00;100826.22;4919115;29;20469;-77
2023/11/13 00:06:17;;;;;;;21.92;12.70;;;;;;;2.80;100.00;100821.97;4918931;29;20099;-77
2023/11/13 00:08:43;;;;;;;20.35;12.20;;;;;;;2.76;100.00;100818.13;4897370;29;20040;-78
2023/11/13 00:11:09;;;;;;;21.27;12.20;;;;;;;2.73;100.00;100813.28;4934416;29;20418;-78
2023/11/13 00:13:36;;;;;;;21.63;12.60;;;;;;;2.70;100.00;100808.41;4901168;29;20740;-76
2023/11/13 00:16:02;;;;;;;22.08;12.73;;;;;;;2.73;100.00;100810.63;4936117;29;20036;-78
2023/11/13 00:18:28;;;;;;;23.45;13.18;;;;;;;2.67;100.00;100806.19;4897634;29;20056;-80
2023/11/13 00:20:53;;;;;;;23.15;13.55;;;;;;;2.64;100.00;100807.44;4898009;29;20131;-78
2023/11/13 00:23:19;;;;;;;22.85;12.93;;;;;;;2.64;100.00;100803.97;4914711;29;20063;-76
2023/11/13 00:25:45;;;;;;;22.10;12.00;;;;;;;2.64;100.00;100819.84;4916179;29;20113;-79
2023/11/13 00:28:11;;;;;;;20.70;11.75;;;;;;;2.63;100.00;100828.78;4942747;28;20106;-78
2023/11/13 00:30:38;;;;;;;18.77;11.40;;;;;;;2.64;100.00;100825.13;4914762;29;20568;-78
2023/11/13 00:33:09;;;;;;;21.10;11.27;;;;;;;2.62;100.00;100832.47;4909878;29;20039;-80
2023/11/13 00:35:48;;;;;;;23.38;12.25;;;;;;;2.62;100.00;100829.81;4946176;29;20043;-81
2023/11/13 00:38:19;;;;;;;21.38;12.52;;;;;;;2.56;100.00;100814.81;4892516;29;20058;-79
2023/11/13 00:40:47;;;;;;;18.27;10.40;;;;;;;2.55;100.00;100811.38;4939037;29;20044;-78
2023/11/13 00:43:14;;;;;;;24.90;11.65;;;;;;;2.55;100.00;100818.50;4936547;29;20067;-78
2023/11/13 00:46:02;;;;;;;20.88;11.15;;;;;;;2.49;100.00;100822.78;4910264;29;20437;-80
2023/11/13 00:48:44;;;;;;;18.10;10.73;;;;;;;2.52;100.00;100832.16;4932388;29;20048;-81
2023/11/13 00:51:11;;;;;;;20.27;11.23;;;;;;;2.51;100.00;100830.50;4941812;29;20035;-79
2023/11/13 00:53:37;;;;;;;;;;;;;;;2.49;100.00;100828.06;4928601;29;20126;-81
2023/11/13 00:56:06;;;;;;;20.95;10.48;;;;;;;2.45;100.00;100821.63;4921689;29;19919;-80
2023/11/13 00:58:34;;;;;;;20.80;10.90;;;;;;;2.37;100.00;100814.75;4944036;29;20029;-80
2023/11/13 01:01:06;;;;;;;20.17;11.68;;;;;;;2.36;100.00;100815.75;4944620;29;20056;-80
2023/11/13 01:03:34;;;;;;;24.95;12.55;;;;;;;2.31;100.00;100802.41;4932997;29;20035;-81
2023/11/13 01:06:06;;;;;;;20.17;12.32;;;;;;;2.35;100.00;100800.94;4896783;29;20036;-79
2023/11/13 01:09:14;;;;;;;18.75;11.38;;;;;;;2.23;100.00;100807.91;4941916;29;20051;-80
2023/11/13 01:11:41;;;;;;;22.83;13.13;;;;;;;2.27;100.00;100822.34;4922648;29;20039;-80
2023/11/13 01:14:09;;;;;;;21.38;12.18;;;;;;;2.24;100.00;100821.97;4929807;29;20031;-80
2023/11/13 01:16:35;;;;;;;19.52;10.65;;;;;;;2.26;100.00;100823.34;4935022;29;20383;-80
2023/11/13 01:19:03;;;;;;;19.90;11.02;;;;;;;2.26;100.00;100820.72;4926038;29;20024;-80
2023/11/13 01:21:30;;;;;;;19.02;11.27;;;;;;;2.24;100.00;100806.91;4933039;29;20163;-79
2023/11/13 01:23:56;;;;;;;;;;;;;;;2.27;100.00;100814.41;4926685;29;20055;-79
2023/11/13 01:26:22;;;;;;;21.48;11.13;;;;;;;2.26;100.00;100819.91;4933602;29;19918;-79
2023/11/13 01:28:50;;;;;;;21.13;11.63;;;;;;;2.21;100.00;100809.97;4934600;29;20713;-79
2023/11/13 01:31:27;;;;;;;24.23;13.13;;;;;;;2.20;100.00;100813.63;4910356;29;20039;-81
2023/11/13 01:33:59;;;;;;;28.70;13.80;;;;;;;2.14;100.00;100814.47;4925151;29;20048;-79
2023/11/13 01:36:28;;;;;;;24.25;12.07;;;;;;;2.12;100.00;100817.34;4936726;29;20448;-81
2023/11/13 01:38:54;;;;;;;24.23;13.73;;;;;;;2.13;100.00;100818.97;4880703;29;20032;-80
2023/11/13 01:41:19;;;;;;;24.67;12.05;;;;;;;2.13;100.00;100823.44;4905692;29;20122;-78
2023/11/13 01:43:45;;;;;;;20.58;11.52;;;;;;;2.13;100.00;100818.16;4903137;29;20035;-79
2023/11/13 01:46:11;;;;;;;26.10;13.43;;;;;;;2.12;100.00;100813.91;4917229;29;20047;-78
2023/11/13 01:48:37;;;;;;;27.25;13.15;;;;;;;2.18;100.00;100816.50;4908489;29;20106;-77
2023/11/13 01:51:03;;;;;;;20.58;12.15;;;;;;;2.15;100.00;100810.81;4912274;29;20035;-79
2023/11/13 01:53:28;;;;;;;27.90;13.48;;;;;;;2.18;100.00;100807.75;4904063;29;20090;-79
2023/11/13 01:55:57;;;;;;;23.00;11.38;;;;;;;2.17;100.00;100814.06;4915020;29;20066;-77
2023/11/13 01:58:23;;;;;;;29.95;16.05;;;;;;;2.20;100.00;100803.06;4887524;29;20065;-79
2023/11/13 02:00:49;;;;;;;;;;;;;;;2.31;100.00;100809.50;4922749;29;20043;-79
2023/11/13 02:03:17;;;;;;;23.52;13.07;;;;;;;2.30;100.00;100792.81;4927315;29;20037;-78
2023/11/13 02:05:45;;;;;;;18.40;10.90;;;;;;;2.26;100.00;100780.28;4903149;29;20494;-79
2023/11/13 02:08:11;;;;;;;22.25;12.98;;;;;;;2.30;100.00;100800.75;4900155;29;20036;-78
2023/11/13 02:10:39;;;;;;;24.60;14.50;;;;;;;2.30;100.00;100786.72;4895508;29;20048;-78
2023/11/13 02:13:05;;;;;;;27.25;14.55;;;;;;;2.32;100.00;100796.09;4919694;29;20073;-78
2023/11/13 02:15:31;;;;;;;27.73;15.35;;;;;;;2.35;100.00;100798.28;4914195;29;20540;-77
2023/11/13 02:18:01;;;;;;;25.90;14.18;;;;;;;2.35;100.00;100798.28;4912330;29;20023;-78
2023/11/13 02:20:27;;;;;;;28.27;14.75;;;;;;;2.28;100.00;100802.00;4898184;29;20050;-77
2023/11/13 02:22:53;;;;;;;24.50;13.30;;;;;;;2.28;100.00;100805.44;4918337;29;20114;-78
2023/11/13 02:25:23;;;;;;;23.42;12.90;;;;;;;2.26;100.00;100812.78;4933283;29;20040;-78
2023/11/13 02:28:00;;;;;;;22.23;12.77;;;;;;;2.27;100.00;100803.84;4920322;29;20040;-79
2023/11/13 02:30:27;;;;;;;21.48;12.07;;;;;;;2.28;100.00;100809.94;4901486;29;20082;-78
2023/11/13 02:32:53;;;;;;;27.90;13.75;;;;;;;2.30;100.00;100811.31;4906029;29;20089;-79
2023/11/13 02:35:19;;;;;;;30.95;15.20;;;;;;;2.36;100.00;100812.31;4911519;29;20489;-78
2023/11/13 02:37:45;;;;;;;31.10;16.50;;;;;;;2.37;100.00;100820.03;4919832;29;20056;-81
2023/11/13 02:40:14;;;;;;;28.42;14.75;;;;;;;2.37;100.00;100814.75;4948573;28;20056;-79
2023/11/13 02:42:42;;;;;;;27.52;13.93;;;;;;;2.39;100.00;100818.00;4923843;29;20039;-79
2023/11/13 02:45:10;;;;;;;24.63;13.25;;;;;;;2.40;100.00;100819.59;4924041;29;20114;-82
2023/11/13 02:47:37;;;;;;;23.33;13.57;;;;;;;2.38;100.00;100805.81;4952075;29;20036;-81
2023/11/13 02:50:03;;;;;;;23.13;12.77;;;;;;;2.32;100.00;100782.88;4926958;29;20058;-79
2023/11/13 02:52:29;;;;;;;23.20;12.55;;;;;;;2.34;100.00;100787.94;4926109;29;20046;-80
2023/11/13 02:54:55;;;;;;;29.63;15.80;;;;;;;2.37;100.00;100792.78;4931369;29;20039;-80
2023/11/13 02:57:22;;;;;;;24.58;12.45;;;;;;;2.33;100.00;100786.31;4933445;29;20038;-80
2023/11/13 02:59:48;;;;;;;24.27;13.25;;;;;;;2.31;100.00;100791.03;4943996;29;20736;-79
2023/11/13 03:02:14;;;;;;;26.02;14.02;;;;;;;2.25;100.00;100803.25;4943627;29;20043;-80
2023/11/13 03:04:41;;;;;;;32.13;16.13;;;;;;;2.32;100.00;100805.84;4942677;29;20063;-80
2023/11/13 03:07:07;;;;;;;30.33;15.68;;;;;;;2.38;100.00;100813.72;4910728;29;20047;-80
2023/11/13 03:09:33;;;;;;;31.55;14.65;;;;;;;2.36;100.00;100813.13;4917802;29;20040;-81
2023/11/13 03:12:02;;;;;;;30.67;15.10;;;;;;;2.37;100.00;100819.22;4962663;28;20067;-80
2023/11/13 03:14:28;;;;;;;28.52;14.63;;;;;;;2.39;100.00;100814.53;4926222;29;20039;-79
2023/11/13 03:16:56;;;;;;;30.45;15.70;;;;;;;2.39;100.00;100807.41;4929068;29;20051;-80
2023/11/13 03:19:22;;;;;;;25.95;14.73;;;;;;;2.33;100.00;100813.56;4914118;29;20087;-80
2023/11/13 03:21:48;;;;;;;23.83;14.00;;;;;;;2.34;100.00;100820.47;4924503;29;20036;-77
2023/11/13 03:24:13;;;;;;;25.33;15.02;;;;;;;2.34;100.00;100803.78;4890290;29;20051;-79
2023/11/13 03:26:39;;;;;;;24.25;13.27;;;;;;;2.35;100.00;100806.22;4931608;29;20044;-77
2023/11/13 03:29:05;;;;;;;26.50;14.75;;;;;;;2.34;100.00;100799.31;4903800;29;20042;-77
2023/11/13 03:31:30;;;;;;;24.92;14.18;;;;;;;2.30;100.00;100803.41;4911572;29;20048;-78
2023/11/13 03:33:56;;;;;;;24.98;13.07;;;;;;;2.25;100.00;100805.88;4917600;29;20032;-78
2023/11/13 03:36:22;;;;;;;23.25;12.73;;;;;;;2.16;100.00;100793.94;4915565;29;20778;-78
2023/11/13 03:38:48;;;;;;;22.52;11.80;;;;;;;2.13;100.00;100794.38;4932110;29;20063;-78
2023/11/13 03:41:14;;;;;;;21.70;12.82;;;;;;;2.05;100.00;100794.63;4903371;29;20047;-77
2023/11/13 03:43:39;;;;;;;23.65;11.98;;;;;;;2.02;100.00;100798.47;4938328;29;20047;-78
2023/11/13 03:46:05;;;;;;;24.50;13.02;;;;;;;1.97;100.00;100800.16;4924981;29;20043;-78
2023/11/13 03:48:30;;;;;;;21.25;13.13;;;;;;;1.90;100.00;100793.09;4907159;29;20043;-77
2023/11/13 03:50:56;;;;;;;23.00;14.48;;;;;;;1.89;100.00;100791.44;4919102;29;20040;-82
2023/11/13 03:53:22;;;;;;;25.45;13.13;;;;;;;1.85;100.00;100790.25;4912680;29;20052;-77
2023/11/13 03:55:47;;;;;;;24.20;13.80;;;;;;;1.83;100.00;100794.09;4917620;29;20040;-78
2023/11/13 03:58:13;;;;;;;24.42;13.32;;;;;;;1.84;100.00;100796.56;4915223;29;20552;-78
2023/11/13 04:00:39;;;;;;;22.98;13.63;;;;;;;1.86;100.00;100801.63;4917862;29;20044;-77
2023/11/13 04:03:05;;;;;;;22.27;13.13;;;;;;;1.90;100.00;100795.72;4931126;29;20114;-79
2023/11/13 04:05:33;;;;;;;24.63;14.00;;;;;;;1.91;100.00;100793.88;4922575;29;20035;-78
2023/11/13 04:07:58;;;;;;;27.38;13.40;;;;;;;1.92;100.00;100800.78;4918470;29;20494;-78
2023/11/13 04:10:25;;;;;;;26.00;13.70;;;;;;;1.94;100.00;100806.66;4936445;29;20058;-78
2023/11/13 04:12:50;;;;;;;25.85;14.50;;;;;;;1.94;100.00;100814.59;4938661;29;20143;-77
2023/11/13 04:15:16;;;;;;;24.73;13.93;;;;;;;1.94;100.00;100811.94;4938394;28;20162;-79
2023/11/13 04:17:44;;;;;;;34.40;15.80;;;;;;;1.98;100.00;100822.91;4938746;29;20036;-79
2023/11/13 04:20:12;;;;;;;;;;;;;;;2.03;100.00;100825.72;4882641;29;20118;-78
2023/11/13 04:22:41;;;;;;;23.92;13.85;;;;;;;1.99;100.00;100811.31;4932013;29;19915;-79
2023/11/13 04:25:08;;;;;;;25.45;13.50;;;;;;;2.03;100.00;100804.56;4932695;29;20067;-79
2023/11/13 04:27:34;;;;;;;24.52;14.18;;;;;;;1.99;100.00;100801.56;4902445;29;20115;-78
2023/11/13 04:29:59;;;;;;;24.23;13.73;;;;;;;2.01;100.00;100793.41;4915465;29;20040;-80
2023/11/13 04:32:25;;;;;;;21.65;12.38;;;;;;;1.99;100.00;100796.28;4908401;29;20118;-79
2023/11/13 04:34:52;;;;;;;22.77;12.32;;;;;;;2.01;100.00;100796.06;4919313;29;20387;-80
2023/11/13 04:37:18;;;;;;;24.92;12.82;;;;;;;1.96;100.00;100795.88;4935443;29;20040;-79
2023/11/13 04:39:44;;;;;;;;;;;;;;;1.98;100.00;100809.72;4946110;28;20036;-80
2023/11/13 04:42:10;;;;;;;18.55;10.63;;;;;;;1.90;100.00;100793.09;4933118;29;19915;-78
2023/11/13 04:44:38;;;;;;;22.55;11.60;;;;;;;1.91;100.00;100784.13;4908512;29;20493;-78
2023/11/13 04:47:04;;;;;;;21.38;12.55;;;;;;;1.91;100.00;100776.22;4916368;29;20057;-78
2023/11/13 04:49:30;;;;;;;22.63;12.60;;;;;;;1.91;100.00;100778.03;4909445;29;20036;-77
2023/11/13 04:51:55;;;;;;;22.13;12.40;;;;;;;1.91;100.00;100788.59;4917564;29;20050;-78
2023/11/13 04:54:21;;;;;;;22.95;12.35;;;;;;;1.91;100.00;100794.69;4914388;29;20050;-78
2023/11/13 04:56:47;;;;;;;20.17;11.68;;;;;;;1.91;100.00;100792.06;4919029;29;20039;-78
2023/11/13 04:59:13;;;;;;;23.15;11.63;;;;;;;1.89;100.00;100796.72;4916165;29;20101;-78
2023/11/13 05:01:40;;;;;;;21.13;11.30;;;;;;;1.88;100.00;100791.66;4914840;29;20126;-79
2023/11/13 05:04:06;;;;;;;19.88;10.93;;;;;;;1.83;100.00;100794.09;4923608;29;20651;-77
2023/11/13 05:06:32;;;;;;;16.08;10.43;;;;;;;1.80;100.00;100786.63;4917247;29;20489;-77
2023/11/13 05:08:57;;;;;;;18.48;10.57;;;;;;;1.77;100.00;100787.88;4895043;29;20167;-77
2023/11/13 05:11:24;;;;;;;18.83;10.85;;;;;;;1.72;100.00;100795.59;4912081;29;20434;-76
2023/11/13 05:13:51;;;;;;;;;;;;;;;1.70;100.00;100797.66;4927579;29;20035;-76
2023/11/13 05:16:21;;;;;;;20.80;10.70;;;;;;;1.68;100.00;100804.13;4908285;29;20377;-79
2023/11/13 05:18:47;;;;;;;20.85;11.18;;;;;;;1.61;100.00;100804.16;4910521;29;20151;-77
2023/11/13 05:21:13;;;;;;;14.77;9.77;;;;;;;1.58;100.00;100810.69;4913748;29;20107;-78
2023/11/13 05:23:40;;;;;;;19.05;10.98;;;;;;;1.56;100.00;100809.28;4927481;29;20032;-77
2023/11/13 05:26:06;;;;;;;16.08;10.07;;;;;;;1.51;100.00;100809.09;4910688;29;20162;-77
2023/11/13 05:28:32;;;;;;;20.02;10.60;;;;;;;1.48;100.00;100804.19;4929578;29;20482;-77
2023/11/13 05:30:58;;;;;;;18.30;10.52;;;;;;;1.44;100.00;100811.75;4927813;29;20409;-78
2023/11/13 05:33:24;;;;;;;15.77;9.88;;;;;;;1.42;100.00;100810.31;4926440;29;20047;-78
2023/11/13 05:35:50;;;;;;;17.52;10.05;;;;;;;1.36;100.00;100812.78;4925728;29;20055;-76
2023/11/13 05:38:16;;;;;;;15.32;9.65;;;;;;;1.30;100.00;100803.06;4929145;29;20028;-78
2023/11/13 05:40:45;;;;;;;18.77;10.65;;;;;;;1.29;100.00;100801.44;4894321;29;20040;-78
2023/11/13 05:43:12;;;;;;;19.10;10.88;;;;;;;1.26;100.00;100801.84;4908051;29;20501;-77
2023/11/13 05:45:37;;;;;;;17.67;9.90;;;;;;;1.19;100.00;100801.03;4923117;29;20046;-77
2023/11/13 05:48:04;;;;;;;21.52;9.85;;;;;;;1.18;100.00;100793.34;4912661;29;20040;-78
2023/11/13 05:50:31;;;;;;;25.45;8.10;;;;;;;1.09;100.00;100782.19;4910409;29;20043;-78
2023/11/13 05:52:57;;;;;;;20.88;10.30;;;;;;;1.05;100.00;100786.25;4914712;29;20039;-78
2023/11/13 05:55:23;;;;;;;19.83;8.93;;;;;;;0.98;100.00;100788.91;4931081;29;20043;-77
2023/11/13 05:57:49;;;;;;;21.30;9.60;;;;;;;0.92;100.00;100781.00;4914553;29;20046;-78
2023/11/13 06:00:18;;;;;;;;;;;;;;;0.86;100.00;100785.25;4914177;29;20043;-78
2023/11/13 06:02:47;;;;;;;13.68;8.20;;;;;;;0.77;100.00;100782.03;4924494;29;19915;-77
2023/11/13 06:05:14;;;;;;;18.95;8.23;;;;;;;0.77;100.00;100782.03;4920367;29;20039;-77
2023/11/13 06:07:41;;;;;;;15.93;8.82;;;;;;;0.76;100.00;100785.69;4926674;29;20080;-76
2023/11/13 06:10:10;;;;;;;14.93;9.52;;;;;;;0.78;100.00;100780.19;4909511;29;20049;-77
2023/11/13 06:12:40;;;;;;;14.80;9.60;;;;;;;0.77;100.00;100771.50;4921619;29;20036;-77
2023/11/13 06:15:13;;;;;;;16.05;9.18;;;;;;;0.78;100.00;100770.47;4927419;29;20175;-77
2023/11/13 06:17:42;;;;;;;19.00;10.20;;;;;;;0.75;100.00;100778.78;4923812;29;20047;-77
2023/11/13 06:20:13;;;;;;;17.17;9.88;;;;;;;0.72;100.00;100771.28;4926196;29;20055;-78
2023/11/13 06:22:43;;;;;;;15.50;9.30;;;;;;;0.71;100.00;100774.94;4911051;29;20043;-76
2023/11/13 06:25:12;;;;;;;14.90;9.20;;;;;;;0.68;100.00;100775.34;4910938;29;20040;-78
2023/11/13 06:27:38;;;;;;;16.67;9.38;;;;;;;0.66;100.00;100769.47;4925974;29;20031;-76
2023/11/13 06:30:05;;;;;;;17.90;10.65;;;;;;;0.65;100.00;100761.75;4939317;28;20056;-77
2023/11/13 06:32:31;;;;;;;16.77;10.65;;;;;;;0.62;100.00;100759.53;4911471;29;20040;-77
2023/11/13 06:34:57;;;;;;;20.55;10.82;;;;;;;0.62;100.00;100757.72;4914166;29;20139;-77
2023/11/13 06:37:23;;;;;;;17.55;9.88;;;;;;;0.63;100.00;100763.78;4911534;29;20076;-78
2023/11/13 06:39:49;;;;;;;18.23;10.00;;;;;;;0.62;100.00;100763.00;4927047;29;20043;-77
2023/11/13 06:42:15;;;;;;;18.27;10.20;;;;;;;0.61;100.00;100765.81;4891991;29;20043;-77
2023/11/13 06:44:41;;;;;;;17.70;9.93;;;;;;;0.61;100.00;100761.38;4897866;29;20055;-77
2023/11/13 06:47:07;;;;;;;25.58;11.43;;;;;;;0.63;100.00;100755.88;4909227;29;20074;-77
2023/11/13 06:49:38;;;;;;;22.25;11.68;;;;;;;0.71;100.00;100756.47;4941861;28;20137;-75
2023/11/13 06:52:08;;;;;;;24.98;12.50;;;;;;;0.77;100.00;100755.66;4908621;29;20490;-75
2023/11/13 06:54:35;;;;;;;21.67;12.77;;;;;;;0.83;100.00;100748.78;4906768;29;20047;-76
2023/11/13 06:57:02;;;;;;;22.58;12.35;;;;;;;0.87;100.00;100752.59;4921678;29;20043;-76
2023/11/13 06:59:28;;;;;;;20.27;11.07;;;;;;;0.88;100.00;100763.97;4895173;29;20457;-75
2023/11/13 07:01:55;;;;;;;21.90;10.68;;;;;;;0.86;100.00;100768.63;4905828;29;20108;-75
2023/11/13 07:04:21;;;;;;;19.90;11.32;;;;;;;0.87;100.00;100764.97;4925008;29;20055;-75
2023/11/13 07:06:47;;;;;;;18.38;10.85;;;;;;;0.90;100.00;100775.13;4909181;29;20036;-77
2023/11/13 07:09:12;;;;;;;18.58;10.57;;;;;;;0.92;100.00;100762.53;4906049;29;20154;-78
2023/11/13 07:11:42;;;;;;;17.73;9.70;;;;;;;0.93;100.00;100769.44;4910439;29;20035;-75
2023/11/13 07:14:12;;;;;;;17.05;10.40;;;;;;;0.92;100.00;100767.81;4922949;29;20182;-75
2023/11/13 07:16:42;;;;;;;17.05;9.60;;;;;;;0.91;100.00;100779.38;4925012;29;20040;-76
2023/11/13 07:19:08;;;;;;;17.27;9.65;;;;;;;0.91;100.00;100767.00;4924001;29;20093;-74
2023/11/13 07:21:35;;;;;;;16.70;9.23;;;;;;;0.97;100.00;100765.38;4925070;29;20050;-76
2023/11/13 07:24:04;;;;;;;20.20;11.07;;;;;;;1.04;100.00;100771.44;4919340;29;20032;-77
2023/11/13 07:26:30;;;;;;;18.38;9.43;;;;;;;1.07;100.00;100765.75;4941144;28;20063;-76
2023/11/13 07:28:56;;;;;;;17.27;9.38;;;;;;;1.08;100.00;100757.66;4912433;29;20147;-76
2023/11/13 07:31:22;;;;;;;15.02;9.07;;;;;;;1.12;100.00;100765.13;4909202;29;20046;-77
2023/11/13 07:33:49;;;;;;;19.52;9.80;;;;;;;1.14;100.00;100765.75;4912301;29;20043;-76
2023/11/13 07:36:15;;;;;;;17.10;9.88;;;;;;;1.21;100.00;100763.88;4925619;29;20071;-75
2023/11/13 07:38:45;;;;;;;19.00;9.30;;;;;;;1.31;100.00;100773.00;4915083;29;20086;-76
2023/11/13 07:41:11;;;;;;;17.27;10.20;;;;;;;1.35;100.00;100763.66;4930110;29;20046;-77
2023/11/13 07:43:42;;;;;;;17.75;10.45;;;;;;;1.43;100.00;100759.19;4926163;29;20149;-76
2023/11/13 07:46:09;;;;;;;20.65;10.65;;;;;;;1.47;100.00;100747.16;4895751;29;20067;-75
2023/11/13 07:48:38;;;;;;;;;;;;;;;1.54;100.00;100756.66;4929271;29;20074;-75
2023/11/13 07:51:06;;;;;;;18.50;10.27;;;;;;;1.58;100.00;100751.78;4928252;29;19929;-76
2023/11/13 07:53:33;;;;;;;18.67;9.90;;;;;;;1.61;100.00;100751.38;4943160;28;20119;-75
2023/11/13 07:55:59;;;;;;;18.80;9.75;;;;;;;1.66;100.00;100746.28;4933477;29;20039;-75
2023/11/13 07:58:26;;;;;;;19.08;10.52;;;;;;;1.69;100.00;100743.19;4906250;29;20034;-75
2023/11/13 08:00:53;;;;;;;19.23;10.48;;;;;;;1.76;100.00;100733.44;4937561;29;20036;-75
2023/11/13 08:03:20;;;;;;;18.77;9.65;;;;;;;1.81;100.00;100730.94;4932274;29;20042;-76
2023/11/13 08:05:45;;;;;;;18.05;10.07;;;;;;;1.87;100.00;100730.09;4935903;29;20031;-75
2023/11/13 08:08:16;;;;;;;18.38;9.43;;;;;;;1.93;100.00;100725.81;4915815;29;20154;-75
2023/11/13 08:10:46;;;;;;;17.70;9.40;;;;;;;1.99;100.00;100727.59;4915584;29;20028;-77
2023/11/13 08:13:20;;;;;;;16.40;9.10;;;;;;;2.09;100.00;100722.63;4932474;29;20042;-75
2023/11/13 08:15:50;;;;;;;14.52;9.00;;;;;;;2.14;100.00;100720.19;4929788;29;20074;-74
2023/11/13 08:18:16;;;;;;;16.98;9.38;;;;;;;2.21;100.00;100699.00;4917845;29;20564;-76
2023/11/13 08:20:42;;;;;;;14.25;8.13;;;;;;;2.24;100.00;100703.88;4943646;28;20039;-76
2023/11/13 08:23:14;;;;;;;15.43;8.90;;;;;;;2.28;100.00;100701.59;4930591;29;20044;-75
2023/11/13 08:25:44;;;;;;;15.75;8.45;;;;;;;2.30;100.00;100696.88;4919108;29;20130;-77
2023/11/13 08:28:10;;;;;;;13.35;8.85;;;;;;;2.32;100.00;100703.59;4931681;29;20043;-77
2023/11/13 08:30:36;;;;;;;;;;;;;;;2.32;100.00;100695.66;4935854;29;20029;-78
2023/11/13 08:33:03;;;;;;;12.45;8.07;;;;;;;2.36;100.00;100696.81;4936600;29;20005;-78
2023/11/13 08:35:31;;;;;;;14.73;7.75;;;;;;;2.41;100.00;100693.53;4939606;29;20042;-78
2023/11/13 08:37:58;;;;;;;13.18;8.25;;;;;;;2.43;100.00;100689.66;4929758;29;20658;-77
2023/11/13 08:40:25;;;;;;;13.48;7.95;;;;;;;2.43;100.00;100671.13;4928216;29;20510;-77
2023/11/13 08:42:51;;;;;;;13.82;8.25;;;;;;;2.39;100.00;100675.25;4931023;29;20093;-78
2023/11/13 08:45:17;;;;;;;14.05;7.65;;;;;;;2.42;100.00;100674.81;4929832;29;21206;-78
2023/11/13 08:47:47;;;;;;;15.25;8.35;;;;;;;2.42;100.00;100674.81;4904318;29;20048;-78
2023/11/13 08:50:14;;;;;;;16.75;8.38;;;;;;;2.44;100.00;100667.50;4930412;29;20059;-78
2023/11/13 08:52:42;;;;;;;14.15;8.10;;;;;;;2.44;100.00;100669.34;4935575;29;20043;-78
2023/11/13 08:55:11;;;;;;;12.63;7.68;;;;;;;2.46;100.00;100668.09;4938908;29;20043;-79
2023/11/13 08:57:38;;;;;;;14.73;7.55;;;;;;;2.48;100.00;100662.56;4933764;29;20039;-78
2023/11/13 09:00:04;;;;;;;;;;;;;;;2.50;100.00;100672.91;4930073;29;20051;-78
2023/11/13 09:02:30;;;;;;;10.30;6.75;;;;;;;2.51;100.00;100667.44;4950528;28;20362;-78
2023/11/13 09:04:55;;;;;;;10.95;6.85;;;;;;;2.56;100.00;100662.28;4930747;29;20074;-79
2023/11/13 09:07:21;;;;;;;11.27;7.47;;;;;;;2.62;100.00;100655.31;4919596;29;20038;-79
2023/11/13 09:09:46;;;;;;;11.20;7.00;;;;;;;2.61;100.00;100640.47;4938230;29;20118;-78
2023/11/13 09:12:12;;;;;;;11.75;7.25;;;;;;;2.65;100.00;100646.97;4932878;29;20040;-78
2023/11/13 09:14:38;;;;;;;11.32;7.50;;;;;;;2.67;100.00;100664.22;4929581;29;20032;-78
2023/11/13 09:17:12;;;;;;;11.77;7.95;;;;;;;2.70;100.00;100662.94;4932645;29;20039;-78
2023/11/13 09:19:43;;;;;;;;;;;;;;;2.70;100.00;100660.31;4931027;29;20082;-78
2023/11/13 09:22:10;;;;;;;12.02;6.93;;;;;;;2.71;100.00;100652.19;4929898;29;19918;-78
2023/11/13 09:24:40;;;;;;;9.77;6.10;;;;;;;2.73;100.00;100644.81;4915119;29;20040;-77
2023/11/13 09:27:09;;;;;;;11.02;7.25;;;;;;;2.75;100.00;100647.25;4945370;28;20130;-78
2023/11/13 09:29:46;;;;;;;11.85;7.00;;;;;;;2.75;100.00;100641.97;4930442;29;20050;-79
2023/11/13 09:32:14;;;;;;;13.18;7.30;;;;;;;2.79;100.00;100627.28;4932964;29;20047;-78
2023/11/13 09:34:41;;;;;;;11.02;6.05;;;;;;;2.78;100.00;100630.13;4932948;29;20063;-79
2023/11/13 09:37:08;;;;;;;10.00;6.97;;;;;;;2.79;100.00;100621.19;4936123;29;20039;-78
2023/11/13 09:39:39;;;;;;;14.75;6.63;;;;;;;2.81;100.00;100614.63;4921726;29;20036;-78
2023/11/13 09:42:16;;;;;;;11.45;7.10;;;;;;;2.84;100.00;100595.66;4934727;29;20044;-78
2023/11/13 09:44:43;;;;;;;10.55;6.35;;;;;;;2.88;100.00;100599.50;4948908;28;20367;-78
2023/11/13 09:47:13;;;;;;;12.32;6.50;;;;;;;2.90;100.00;100592.13;4924509;29;20044;-78
2023/11/13 09:49:44;;;;;;;11.70;6.60;;;;;;;2.94;100.00;100585.38;4922606;29;20067;-78
2023/11/13 09:52:14;;;;;;;12.18;6.70;;;;;;;2.99;100.00;100598.75;4919651;29;20039;-79
2023/11/13 09:54:43;;;;;;;15.13;7.07;;;;;;;3.04;100.00;100589.31;4933449;29;20027;-79
2023/11/13 09:57:12;;;;;;;11.13;7.10;;;;;;;3.10;100.00;100586.59;4933056;29;20038;-76
2023/11/13 09:59:38;;;;;;;11.43;7.13;;;;;;;3.12;100.00;100568.66;4935463;29;20063;-75
2023/11/13 10:02:08;;;;;;;15.05;6.65;;;;;;;3.19;100.00;100560.63;4927718;29;20048;-77
2023/11/13 10:04:34;;;;;;;14.65;6.90;;;;;;;3.23;100.00;100565.25;4929183;29;20373;-76
2023/11/13 10:07:02;;;;;;;9.50;5.97;;;;;;;3.27;100.00;100565.59;4936985;29;20038;-77
2023/11/13 10:09:30;;;;;;;12.45;6.38;;;;;;;3.30;100.00;100559.84;4899866;29;20043;-76
2023/11/13 10:11:59;;;;;;;14.35;6.57;;;;;;;3.33;100.00;100554.13;4931490;29;20011;-80
2023/11/13 10:14:25;;;;;;;9.98;5.70;;;;;;;3.36;100.00;100553.66;4936701;29;20051;-78
2023/11/13 10:17:00;;;;;;;10.95;6.75;;;;;;;3.44;100.00;100561.25;4935686;28;20118;-78
2023/11/13 10:19:26;;;;;;;12.55;6.15;;;;;;;3.55;100.00;100571.09;4918164;29;20032;-79
2023/11/13 10:21:55;;;;;;;11.02;5.95;;;;;;;3.60;100.00;100559.81;4933976;29;20078;-77
2023/11/13 10:24:24;;;;;;;10.95;6.15;;;;;;;3.67;100.00;100565.00;4922269;29;20031;-78
2023/11/13 10:26:50;;;;;;;8.50;5.57;;;;;;;3.74;100.00;100550.63;4950879;28;20040;-77
2023/11/13 10:29:27;;;;;;;11.05;6.43;;;;;;;3.77;100.00;100522.88;4914615;29;20044;-78
2023/11/13 10:31:54;;;;;;;12.68;5.93;;;;;;;3.77;100.00;100521.03;4912990;29;20055;-76
2023/11/13 10:34:20;;;;;;;9.23;6.13;;;;;;;3.78;100.00;100521.81;4946892;28;20131;-76
2023/11/13 10:37:18;;;;;;;;;;;;;;;3.79;100.00;100516.31;4912491;29;20044;-77
2023/11/13 10:39:44;;;;;;;11.15;5.68;;;;;;;3.83;100.00;100511.34;4915630;29;19988;-76
2023/11/13 10:42:22;;;;;;;9.07;6.05;;;;;;;3.86;100.00;100516.19;4913162;29;20082;-79
2023/11/13 10:44:56;;;;;;;12.25;5.78;;;;;;;3.92;100.00;100504.66;4929875;29;20493;-77
2023/11/13 10:47:35;;;;;;;10.13;6.22;;;;;;;4.00;100.00;100503.53;4915004;29;20056;-77
2023/11/13 10:50:02;;;;;;;11.50;5.53;;;;;;;4.06;100.00;100490.16;4927920;29;20852;-76
2023/11/13 10:52:29;;;;;;;10.82;5.70;;;;;;;4.14;100.00;100490.84;4943963;28;20052;-77
2023/11/13 10:55:04;;;;;;;12.02;5.55;;;;;;;4.14;100.00;100481.03;4933313;29;20039;-76
2023/11/13 10:57:31;;;;;;;9.70;6.20;;;;;;;4.16;100.00;100483.44;4927586;29;20043;-77
2023/11/13 10:59:57;;;;;;;;;;;;;;;4.18;100.00;100478.72;4931805;29;20040;-77
2023/11/13 11:02:30;;;;;;;8.70;5.93;;;;;;;4.24;100.00;100478.59;4931692;28;21659;-77
2023/11/13 11:05:00;;;;;;;11.05;6.10;;;;;;;4.29;100.00;100468.09;4928081;29;20038;-76
2023/11/13 11:07:27;;;;;;;11.88;6.35;;;;;;;4.31;100.00;100455.41;4934351;29;22137;-75
2023/11/13 11:10:00;;;;;;;10.05;5.90;;;;;;;4.37;100.00;100449.16;4931420;29;20074;-76
2023/11/13 11:12:32;;;;;;;10.05;5.60;;;;;;;4.42;100.00;100429.91;4915562;29;20050;-77
2023/11/13 11:15:11;;;;;;;9.20;5.82;;;;;;;4.49;100.00;100424.47;4913918;29;20036;-76
2023/11/13 11:17:43;;;;;;;14.23;5.97;;;;;;;4.59;100.00;100414.03;4926020;29;20162;-76
2023/11/13 11:20:26;;;;;;;13.60;6.20;;;;;;;4.64;100.00;100409.63;4929023;29;20059;-77